Time;durP1;ratioP1;P1;durP2;ratioP2;P2;SDS_P1;SDS_P2;PMS_P1;PMS_P2;Temp;Humidity;BMP_temperature;BMP_pressure;BME280_temperature;BME280_humidity;BME280_pressure;Samples;Min_cycle;Max_cycle;Signal;HPM_P1;HPM_P2
2021/08/16 00:01:55;;;;;;;6.90;3.38;;;;;;;23.66;47.94;99936.72;5094347;28;20257;-73
2021/08/16 00:04:21;;;;;;;8.90;3.75;;;;;;;23.85;45.96;99921.91;5097549;28;20031;-73
2021/08/16 00:06:46;;;;;;;10.07;3.35;;;;;;;23.58;47.33;99923.59;5097771;28;20047;-73
2021/08/16 00:09:11;;;;;;;8.27;3.38;;;;;;;23.31;49.65;99925.22;5100293;28;20026;-73
2021/08/16 00:11:39;;;;;;;7.43;3.53;;;;;;;23.23;50.37;99926.41;5099708;28;20038;-73
2021/08/16 00:14:04;;;;;;;11.60;3.70;;;;;;;23.01;47.31;99922.72;5087851;28;20032;-73
2021/08/16 00:16:31;;;;;;;8.82;4.05;;;;;;;22.96;47.01;99923.44;5093291;28;20071;-73
2021/08/16 00:18:56;;;;;;;4.85;3.38;;;;;;;23.01;49.50;99918.16;5094633;28;20035;-73
2021/08/16 00:21:22;;;;;;;12.90;3.38;;;;;;;22.94;49.20;99912.06;5094733;28;20024;-73
2021/08/16 00:23:47;;;;;;;6.13;3.55;;;;;;;22.96;47.68;99922.63;5091670;28;20031;-73
2021/08/16 00:26:13;;;;;;;9.27;3.40;;;;;;;22.91;47.76;99921.47;5086885;28;20039;-73
2021/08/16 00:28:39;;;;;;;9.38;3.40;;;;;;;22.87;47.37;99920.25;5096353;28;20079;-73
2021/08/16 00:31:04;;;;;;;7.63;3.40;;;;;;;22.77;48.71;99924.59;5092741;28;20044;-73
2021/08/16 00:33:30;;;;;;;13.43;3.67;;;;;;;22.65;48.91;99918.41;5091222;28;20101;-73
2021/08/16 00:35:55;;;;;;;8.75;3.85;;;;;;;22.79;48.43;99920.59;5093020;28;20104;-73
2021/08/16 00:38:21;;;;;;;6.10;3.50;;;;;;;22.67;48.95;99917.09;5098629;28;20023;-73
2021/08/16 00:40:46;;;;;;;9.52;3.83;;;;;;;22.76;48.54;99917.56;5087368;28;20326;-73
2021/08/16 00:43:12;;;;;;;9.27;3.85;;;;;;;22.77;46.82;99920.00;5086478;28;20220;-73
2021/08/16 00:45:37;;;;;;;11.27;3.85;;;;;;;22.76;47.88;99907.56;5097979;28;20028;-73
2021/08/16 00:48:03;;;;;;;13.73;3.30;;;;;;;22.74;48.76;99916.97;5083864;28;20032;-73
2021/08/16 00:50:29;;;;;;;10.75;3.40;;;;;;;22.74;48.84;99911.56;5093759;28;20040;-73
2021/08/16 00:52:56;;;;;;;8.82;3.88;;;;;;;22.78;48.17;99910.84;5095821;28;20034;-73
2021/08/16 00:55:23;;;;;;;7.30;3.08;;;;;;;22.80;47.97;99916.06;5094589;28;20036;-73
2021/08/16 00:57:48;;;;;;;8.07;3.70;;;;;;;22.72;48.02;99919.91;5088517;28;20036;-73
2021/08/16 01:00:14;;;;;;;8.07;3.42;;;;;;;22.59;48.29;99920.16;5093129;28;20333;-73
2021/08/16 01:02:42;;;;;;;10.48;3.70;;;;;;;22.54;47.73;99909.25;5105860;28;20034;-73
2021/08/16 01:05:11;;;;;;;5.38;3.33;;;;;;;22.49;48.14;99918.06;5122043;28;20051;-73
2021/08/16 01:07:38;;;;;;;6.90;3.55;;;;;;;22.40;48.75;99911.38;5113846;28;20032;-73
2021/08/16 01:10:05;;;;;;;6.30;3.50;;;;;;;22.39;48.35;99912.44;5070975;28;20038;-73
2021/08/16 01:12:33;;;;;;;8.07;3.42;;;;;;;22.40;48.71;99910.56;5087130;28;20340;-72
2021/08/16 01:15:00;;;;;;;7.25;3.42;;;;;;;22.43;48.96;99915.47;5086481;28;20032;-73
2021/08/16 01:17:25;;;;;;;7.22;3.55;;;;;;;22.50;48.33;99918.88;5095655;28;20039;-73
2021/08/16 01:19:50;;;;;;;8.05;3.40;;;;;;;22.42;48.31;99911.94;5096225;28;20036;-73
2021/08/16 01:22:17;;;;;;;9.48;3.40;;;;;;;22.20;48.49;99919.00;5075674;28;20042;-73
2021/08/16 01:24:43;;;;;;;9.30;3.78;;;;;;;21.97;49.49;99906.28;5088138;28;20032;-73
2021/08/16 01:27:10;;;;;;;11.65;3.40;;;;;;;21.99;49.00;99913.06;5089570;28;20076;-73
2021/08/16 01:29:35;;;;;;;11.68;4.32;;;;;;;21.89;49.15;99912.00;5101127;28;20093;-73
2021/08/16 01:32:02;;;;;;;40.58;4.70;;;;;;;21.99;48.90;99915.78;5099869;28;20268;-73
2021/08/16 01:34:29;;;;;;;15.13;4.05;;;;;;;22.05;48.46;99910.53;5095210;28;20039;-73
2021/08/16 01:36:55;;;;;;;15.93;3.58;;;;;;;22.03;48.74;99909.94;5091497;28;20052;-73
2021/08/16 01:39:22;;;;;;;11.65;4.13;;;;;;;22.13;48.10;99913.72;5091529;28;20039;-73
2021/08/16 01:41:48;;;;;;;14.52;4.00;;;;;;;22.05;48.57;99910.53;5087177;28;20032;-73
2021/08/16 01:44:15;;;;;;;15.02;4.30;;;;;;;22.05;48.93;99910.53;5082636;28;20031;-73
2021/08/16 01:46:42;;;;;;;12.90;3.53;;;;;;;22.09;48.16;99903.63;5090143;28;20109;-73
2021/08/16 01:49:08;;;;;;;12.23;4.65;;;;;;;22.03;48.61;99894.59;5084535;28;20043;-73
2021/08/16 01:51:34;;;;;;;10.45;3.72;;;;;;;22.09;48.57;99909.00;5090032;28;20099;-73
2021/08/16 01:54:00;;;;;;;15.63;4.03;;;;;;;22.02;48.24;99900.19;5086579;28;20024;-73
2021/08/16 01:56:25;;;;;;;9.90;3.45;;;;;;;21.94;48.98;99896.78;5075426;28;20039;-73
2021/08/16 01:58:51;;;;;;;11.70;3.50;;;;;;;21.89;48.95;99901.22;5094688;28;20039;-73
2021/08/16 02:01:16;;;;;;;17.23;3.83;;;;;;;21.80;49.53;99895.31;5087288;28;20040;-73
2021/08/16 02:03:42;;;;;;;12.85;3.97;;;;;;;21.78;49.80;99907.38;5088091;28;20023;-73
2021/08/16 02:06:08;;;;;;;14.23;4.32;;;;;;;21.81;50.40;99907.75;5083056;28;20097;-73
2021/08/16 02:08:33;;;;;;;8.45;4.10;;;;;;;21.94;48.21;99895.94;5092470;28;20261;-73
2021/08/16 02:10:59;;;;;;;10.63;3.85;;;;;;;21.88;48.95;99897.69;5089928;28;20203;-73
2021/08/16 02:13:24;;;;;;;11.45;3.92;;;;;;;21.86;49.64;99896.28;5091302;28;20032;-73
2021/08/16 02:15:50;;;;;;;11.40;4.28;;;;;;;21.86;49.76;99897.13;5074159;28;20041;-73
2021/08/16 02:18:15;;;;;;;20.88;4.30;;;;;;;21.86;49.41;99901.69;5090915;28;20030;-73
2021/08/16 02:20:40;;;;;;;7.32;3.85;;;;;;;21.83;49.24;99902.13;5091459;28;20044;-73
2021/08/16 02:23:06;;;;;;;11.93;4.20;;;;;;;21.70;49.41;99900.44;5109608;28;20039;-73
2021/08/16 02:25:31;;;;;;;9.93;3.80;;;;;;;21.80;49.41;99913.38;5120694;28;20351;-73
2021/08/16 02:27:57;;;;;;;13.13;4.22;;;;;;;21.76;50.34;99909.47;5084620;28;20036;-73
2021/08/16 02:30:22;;;;;;;11.60;4.03;;;;;;;21.71;50.00;99912.06;5091602;28;20299;-73
2021/08/16 02:32:48;;;;;;;8.68;3.67;;;;;;;21.77;50.01;99911.94;5089830;28;20028;-73
2021/08/16 02:35:14;;;;;;;11.48;4.18;;;;;;;21.75;49.92;99908.66;5086174;28;20027;-74
2021/08/16 02:37:40;;;;;;;9.35;4.30;;;;;;;21.76;48.97;99907.59;5086768;28;20079;-72
2021/08/16 02:40:07;;;;;;;8.90;3.58;;;;;;;21.76;49.34;99913.00;5094179;28;20036;-73
2021/08/16 02:42:33;;;;;;;6.38;4.15;;;;;;;21.61;49.77;99904.53;5088361;28;20036;-72
2021/08/16 02:44:58;;;;;;;9.85;4.60;;;;;;;21.60;50.12;99908.28;5072984;28;20030;-73
2021/08/16 02:47:24;;;;;;;19.50;3.50;;;;;;;21.53;49.98;99902.16;5088029;28;20229;-73
2021/08/16 02:49:50;;;;;;;8.57;3.88;;;;;;;21.45;49.85;99902.47;5070428;28;20682;-73
2021/08/16 02:52:18;;;;;;;12.73;3.90;;;;;;;21.37;50.51;99909.00;5086397;28;20032;-73
2021/08/16 02:54:45;;;;;;;11.40;4.18;;;;;;;21.37;50.26;99903.63;5083850;28;20142;-73
2021/08/16 02:57:12;;;;;;;13.93;4.68;;;;;;;21.27;50.88;99909.56;5083936;28;20225;-73
2021/08/16 02:59:39;;;;;;;7.78;3.78;;;;;;;20.97;51.40;99914.88;5092814;28;20048;-73
2021/08/16 03:02:05;;;;;;;9.68;3.88;;;;;;;20.89;51.97;99915.19;5090291;28;20050;-73
2021/08/16 03:04:30;;;;;;;13.82;3.88;;;;;;;20.65;52.51;99916.88;5078025;28;20023;-73
2021/08/16 03:06:56;;;;;;;9.70;4.10;;;;;;;20.71;52.68;99915.97;5097254;28;20047;-73
2021/08/16 03:09:25;;;;;;;14.30;4.47;;;;;;;20.90;51.74;99924.91;5096005;28;20035;-73
2021/08/16 03:11:51;;;;;;;8.52;3.55;;;;;;;20.93;51.59;99918.25;5091855;28;20110;-73
2021/08/16 03:14:16;;;;;;;7.65;3.58;;;;;;;21.07;51.85;99924.28;5090962;28;20028;-73
2021/08/16 03:16:42;;;;;;;11.25;3.85;;;;;;;21.05;50.53;99919.13;5092520;28;21140;-73
2021/08/16 03:19:07;;;;;;;8.73;3.83;;;;;;;21.04;51.19;99918.31;5103346;28;20054;-73
2021/08/16 03:21:33;;;;;;;21.17;8.20;;;;;;;21.01;50.65;99915.25;5090308;28;20044;-73
2021/08/16 03:23:58;;;;;;;13.40;4.75;;;;;;;20.98;50.58;99927.28;5085559;28;20036;-73
2021/08/16 03:26:23;;;;;;;6.63;3.75;;;;;;;20.94;50.61;99920.72;5093640;28;20032;-73
2021/08/16 03:28:49;;;;;;;10.48;3.90;;;;;;;20.97;50.52;99922.13;5094730;28;20032;-73
2021/08/16 03:31:15;;;;;;;12.77;4.25;;;;;;;20.97;51.07;99920.25;5094089;28;20028;-72
2021/08/16 03:33:40;;;;;;;9.90;4.65;;;;;;;20.78;51.75;99913.22;5102705;28;20024;-73
2021/08/16 03:36:06;;;;;;;13.13;4.20;;;;;;;20.67;52.13;99912.09;5093431;28;20087;-74
2021/08/16 03:38:31;;;;;;;14.02;4.57;;;;;;;20.71;51.97;99915.97;5094105;28;20333;-74
2021/08/16 03:40:57;;;;;;;18.15;4.70;;;;;;;20.83;52.07;99926.03;5101147;28;20040;-72
2021/08/16 03:43:22;;;;;;;27.25;5.40;;;;;;;20.92;52.38;99928.19;5086503;28;20025;-73
2021/08/16 03:45:48;;;;;;;18.85;4.45;;;;;;;20.96;51.51;99923.19;5090499;28;20056;-73
2021/08/16 03:48:13;;;;;;;14.00;4.65;;;;;;;21.04;50.96;99925.56;5088864;28;20035;-73
2021/08/16 03:50:39;;;;;;;21.60;4.65;;;;;;;21.11;51.18;99931.69;5088429;28;20036;-73
2021/08/16 03:53:05;;;;;;;18.42;5.40;;;;;;;21.04;51.56;99933.66;5095689;28;20036;-73
2021/08/16 03:55:31;;;;;;;17.73;5.35;;;;;;;20.95;51.75;99938.50;5071970;28;20021;-73
2021/08/16 03:57:57;;;;;;;15.18;5.03;;;;;;;21.12;51.51;99937.91;5094220;28;20583;-73
2021/08/16 04:00:22;;;;;;;15.45;4.80;;;;;;;21.29;51.06;99939.78;5085767;28;20032;-73
2021/08/16 04:02:48;;;;;;;17.70;5.15;;;;;;;21.49;50.16;99928.75;5082118;28;20116;-73
2021/08/16 04:05:13;;;;;;;12.93;5.07;;;;;;;21.53;50.14;99921.84;5089639;28;20037;-73
2021/08/16 04:07:43;;;;;;;12.82;4.80;;;;;;;21.59;50.33;99930.88;5088739;28;20054;-73
2021/08/16 04:10:11;;;;;;;18.40;4.78;;;;;;;21.33;50.70;99921.28;5089327;28;20032;-73
2021/08/16 04:12:36;;;;;;;13.95;5.53;;;;;;;21.24;51.29;99928.03;5095592;28;20032;-73
2021/08/16 04:15:04;;;;;;;18.75;5.22;;;;;;;21.21;51.79;99929.28;5093181;28;20044;-73
2021/08/16 04:17:30;;;;;;;17.85;5.32;;;;;;;21.17;52.07;99925.41;5091523;28;20266;-73
2021/08/16 04:19:55;;;;;;;11.80;4.80;;;;;;;21.45;51.10;99932.13;5091910;28;20047;-73
2021/08/16 04:22:21;;;;;;;12.23;5.55;;;;;;;21.54;50.95;99931.56;5077939;28;20055;-73
2021/08/16 04:24:46;;;;;;;20.52;5.22;;;;;;;21.62;50.71;99931.25;5098635;28;20031;-73
2021/08/16 04:27:12;;;;;;;17.42;5.45;;;;;;;21.87;50.34;99935.69;5091974;28;20028;-72
2021/08/16 04:29:37;;;;;;;19.45;5.25;;;;;;;21.90;50.00;99933.34;5097922;28;20023;-72
2021/08/16 04:32:03;;;;;;;21.00;6.00;;;;;;;21.71;50.19;99915.56;5089870;28;20078;-72
2021/08/16 04:34:28;;;;;;;21.00;5.47;;;;;;;21.95;50.31;99943.44;5082873;28;20032;-72
2021/08/16 04:36:54;;;;;;;25.95;6.00;;;;;;;22.02;49.62;99927.16;5063643;28;20214;-73
2021/08/16 04:39:19;;;;;;;24.85;5.78;;;;;;;21.73;49.97;99910.78;5086532;28;20447;-73
2021/08/16 04:41:44;;;;;;;19.88;6.43;;;;;;;22.13;49.53;99935.28;5066138;28;20021;-73
2021/08/16 04:44:10;;;;;;;17.70;5.43;;;;;;;22.28;48.78;99927.56;5092500;28;20034;-73
2021/08/16 04:46:35;;;;;;;9.00;5.30;;;;;;;22.17;49.06;99944.56;5089410;28;20044;-73
2021/08/16 04:49:01;;;;;;;16.13;5.85;;;;;;;22.12;49.15;99943.59;5068111;28;20237;-73
2021/08/16 04:51:26;;;;;;;14.18;6.15;;;;;;;22.37;48.85;99952.31;5099625;28;20453;-73
2021/08/16 04:53:52;;;;;;;13.40;5.60;;;;;;;22.49;48.31;99952.31;5089542;28;20328;-73
2021/08/16 04:56:17;;;;;;;18.92;6.43;;;;;;;22.53;48.29;99950.78;5092512;28;20343;-73
2021/08/16 04:58:43;;;;;;;13.68;5.85;;;;;;;22.67;48.16;99943.25;5087429;28;20028;-72
2021/08/16 05:01:08;;;;;;;13.98;5.55;;;;;;;23.01;46.95;99953.25;5081126;28;20028;-73
2021/08/16 05:03:33;;;;;;;18.65;6.65;;;;;;;23.21;47.15;99952.84;5081554;28;20036;-73
2021/08/16 05:06:05;;;;;;;24.40;7.40;;;;;;;23.37;46.09;99946.69;5093121;28;20043;-73
2021/08/16 05:08:32;;;;;;;18.67;9.35;;;;;;;23.67;45.67;99960.00;5072921;28;20710;-73
2021/08/16 05:10:57;;;;;;;21.13;5.93;;;;;;;24.03;45.64;99964.16;5076102;28;20359;-73
2021/08/16 05:13:22;;;;;;;12.95;6.25;;;;;;;24.36;44.69;99957.97;5087344;28;20034;-73
2021/08/16 05:15:48;;;;;;;15.80;5.55;;;;;;;24.58;44.91;99957.22;5092973;28;20036;-72
2021/08/16 05:18:13;;;;;;;16.13;5.70;;;;;;;24.75;44.11;99958.81;5101113;28;20032;-72
2021/08/16 05:20:39;;;;;;;16.65;6.07;;;;;;;24.89;43.44;99955.75;5091834;28;20051;-72
2021/08/16 05:23:05;;;;;;;23.67;6.90;;;;;;;25.19;43.10;99960.78;5085179;28;20311;-72
2021/08/16 05:25:31;;;;;;;18.48;6.95;;;;;;;25.54;43.03;99952.25;5099920;28;20024;-72
2021/08/16 05:27:57;;;;;;;25.42;6.80;;;;;;;25.70;42.13;99945.94;5100345;28;20091;-73
2021/08/16 05:30:22;;;;;;;13.75;5.88;;;;;;;26.00;41.10;99948.13;5092610;28;20034;-73
2021/08/16 05:32:48;;;;;;;13.43;6.00;;;;;;;26.45;40.21;99950.41;5069633;28;20028;-73
2021/08/16 05:35:14;;;;;;;11.60;6.18;;;;;;;26.82;39.76;99942.22;5084538;28;20055;-73
2021/08/16 05:37:40;;;;;;;16.38;6.63;;;;;;;27.14;38.32;99947.59;5076436;28;20357;-73
2021/08/16 05:40:07;;;;;;;12.77;5.82;;;;;;;27.38;37.70;99933.53;5079360;28;20016;-73
2021/08/16 05:42:33;;;;;;;13.02;6.75;;;;;;;27.57;37.44;99943.63;5097658;28;20039;-73
2021/08/16 05:44:59;;;;;;;19.08;6.03;;;;;;;28.00;36.51;99949.72;5101835;28;20107;-73
2021/08/16 05:47:25;;;;;;;18.83;6.28;;;;;;;28.43;35.02;99933.94;5083770;28;20024;-73
2021/08/16 05:49:50;;;;;;;14.95;5.40;;;;;;;28.39;34.91;99938.31;5101919;28;20337;-73
2021/08/16 05:52:16;;;;;;;11.30;4.80;;;;;;;28.91;34.34;99935.22;5101955;28;20226;-73
2021/08/16 05:54:41;;;;;;;9.27;4.55;;;;;;;29.31;32.25;99936.16;5101871;28;20099;-73
2021/08/16 05:57:07;;;;;;;8.55;4.25;;;;;;;29.50;31.37;99924.34;5101752;28;20342;-73
2021/08/16 05:59:32;;;;;;;12.75;4.45;;;;;;;29.75;31.09;99933.47;5102081;28;20039;-73
2021/08/16 06:01:58;;;;;;;7.15;3.90;;;;;;;30.22;29.68;99932.03;5101586;28;20073;-73
2021/08/16 06:04:23;;;;;;;5.55;3.47;;;;;;;30.44;28.43;99935.09;5102168;28;20328;-73
2021/08/16 06:06:48;;;;;;;10.90;4.20;;;;;;;30.33;29.02;99939.84;5101644;28;20225;-73
2021/08/16 06:09:14;;;;;;;9.88;4.05;;;;;;;30.69;28.91;99928.59;5101904;28;20046;-73
2021/08/16 06:11:39;;;;;;;8.70;3.95;;;;;;;30.79;28.27;99928.47;5101383;28;20255;-73
2021/08/16 06:14:05;;;;;;;9.55;4.30;;;;;;;30.98;27.91;99923.06;5101707;28;20263;-73
2021/08/16 06:16:30;;;;;;;7.60;3.72;;;;;;;31.34;26.95;99926.19;5101726;28;20218;-73
2021/08/16 06:18:56;;;;;;;7.65;3.53;;;;;;;31.73;26.67;99926.72;5101631;28;20024;-73
2021/08/16 06:21:21;;;;;;;7.85;3.35;;;;;;;31.64;26.05;99928.47;5085807;28;20032;-73
2021/08/16 06:23:47;;;;;;;7.82;3.50;;;;;;;31.86;26.33;99930.63;5082380;28;20044;-74
2021/08/16 06:26:13;;;;;;;9.18;4.50;;;;;;;31.88;26.11;99927.59;5083150;28;20039;-74
2021/08/16 06:28:38;;;;;;;13.15;5.43;;;;;;;32.06;26.19;99929.50;5083576;28;20047;-73
2021/08/16 06:31:04;;;;;;;12.68;6.80;;;;;;;32.11;26.08;99925.84;5089388;28;20034;-73
2021/08/16 06:33:29;;;;;;;10.32;3.90;;;;;;;32.05;26.96;99916.91;5086791;28;20024;-73
2021/08/16 06:35:55;;;;;;;8.27;3.95;;;;;;;32.15;26.92;99924.13;5087613;28;20325;-73
2021/08/16 06:38:25;;;;;;;6.50;3.92;;;;;;;32.15;27.06;99922.22;5089533;28;20059;-73
2021/08/16 06:40:53;;;;;;;10.57;4.00;;;;;;;32.35;26.43;99921.09;5090651;28;20044;-73
2021/08/16 06:43:19;;;;;;;18.38;4.70;;;;;;;32.27;26.87;99913.56;5084472;28;20314;-73
2021/08/16 06:45:44;;;;;;;10.15;4.88;;;;;;;32.57;26.18;99926.69;5088430;28;20043;-73
2021/08/16 06:48:11;;;;;;;15.07;6.57;;;;;;;32.55;26.05;99917.16;5086617;28;20016;-73
2021/08/16 06:50:38;;;;;;;14.68;4.55;;;;;;;32.53;25.23;99913.91;5086357;28;20045;-73
2021/08/16 06:53:04;;;;;;;9.30;4.93;;;;;;;32.38;26.55;99917.75;5086145;28;20032;-73
2021/08/16 06:55:29;;;;;;;7.72;4.63;;;;;;;32.80;25.58;99919.44;5090091;28;20032;-73
2021/08/16 06:57:54;;;;;;;9.00;4.40;;;;;;;33.00;25.45;99919.00;5089483;28;20030;-73
2021/08/16 07:00:20;;;;;;;12.40;4.38;;;;;;;33.03;23.95;99911.28;5089487;28;20036;-74
2021/08/16 07:02:45;;;;;;;8.63;4.00;;;;;;;33.11;24.41;99916.06;5088628;28;20064;-73
2021/08/16 07:05:11;;;;;;;13.55;4.53;;;;;;;33.00;24.72;99913.53;5087985;28;20321;-74
2021/08/16 07:07:36;;;;;;;12.13;5.18;;;;;;;33.21;25.08;99916.63;5087001;28;20135;-73
2021/08/16 07:10:03;;;;;;;8.95;4.35;;;;;;;33.12;24.64;99915.75;5090202;28;20023;-73
2021/08/16 07:12:28;;;;;;;18.85;5.93;;;;;;;32.94;24.28;99917.50;5090221;28;20342;-73
2021/08/16 07:14:54;;;;;;;18.80;5.50;;;;;;;33.00;24.54;99919.00;5090348;28;20047;-73
2021/08/16 07:17:20;;;;;;;7.40;4.20;;;;;;;33.39;24.21;99914.94;5088174;28;20041;-74
2021/08/16 07:19:45;;;;;;;7.55;3.75;;;;;;;33.68;24.20;99924.69;5092536;28;20549;-73
2021/08/16 07:22:11;;;;;;;8.85;3.80;;;;;;;33.74;23.70;99912.47;5090629;28;20040;-73
2021/08/16 07:24:36;;;;;;;6.13;3.20;;;;;;;33.70;23.54;99923.25;5088820;28;20297;-74
2021/08/16 07:27:02;;;;;;;7.90;3.30;;;;;;;34.11;22.81;99914.84;5089136;28;20330;-73
2021/08/16 07:29:29;;;;;;;11.35;3.13;;;;;;;34.31;22.51;99909.94;5086272;28;20052;-73
2021/08/16 07:31:55;;;;;;;7.53;2.90;;;;;;;34.57;22.21;99902.69;5085825;28;20077;-73
2021/08/16 07:34:22;;;;;;;8.05;2.92;;;;;;;34.57;22.28;99906.25;5088253;28;20036;-73
2021/08/16 07:36:48;;;;;;;8.52;3.20;;;;;;;34.39;22.16;99903.75;5087079;28;20040;-73
2021/08/16 07:39:14;;;;;;;5.20;2.70;;;;;;;34.69;21.72;99894.66;5085925;28;20034;-73
2021/08/16 07:41:40;;;;;;;6.07;3.08;;;;;;;34.86;21.71;99896.66;5086652;28;20064;-73
2021/08/16 07:44:06;;;;;;;5.75;2.90;;;;;;;34.95;21.35;99896.69;5087088;28;20028;-73
2021/08/16 07:46:31;;;;;;;4.63;2.78;;;;;;;35.03;21.31;99893.94;5089694;28;20221;-73
2021/08/16 07:48:57;;;;;;;5.85;3.03;;;;;;;35.54;20.90;99894.38;5087889;28;20274;-73
2021/08/16 07:51:22;;;;;;;6.35;3.15;;;;;;;35.68;19.87;99878.50;5088813;28;20394;-73
2021/08/16 07:53:47;;;;;;;5.35;3.00;;;;;;;35.92;20.18;99886.25;5087193;28;20082;-73
2021/08/16 07:56:13;;;;;;;6.63;4.00;;;;;;;35.70;20.30;99882.53;5085632;28;20043;-73
2021/08/16 07:58:38;;;;;;;5.60;3.75;;;;;;;35.51;20.49;99887.56;5086911;28;20218;-73
2021/08/16 08:01:04;;;;;;;11.75;3.20;;;;;;;35.38;20.30;99888.53;5086899;28;20325;-73
2021/08/16 08:03:30;;;;;;;8.43;3.28;;;;;;;35.49;20.52;99885.16;5088365;28;20028;-73
2021/08/16 08:05:55;;;;;;;4.90;2.97;;;;;;;35.50;20.10;99875.75;5087168;28;20032;-73
2021/08/16 08:08:21;;;;;;;6.60;3.30;;;;;;;35.56;20.52;99884.66;5067794;28;20035;-73
2021/08/16 08:10:46;;;;;;;6.20;2.97;;;;;;;35.69;19.72;99874.59;5088113;28;20032;-73
2021/08/16 08:13:13;;;;;;;7.80;2.83;;;;;;;35.63;20.27;99873.97;5087331;28;20253;-73
2021/08/16 08:15:39;;;;;;;5.40;2.92;;;;;;;35.70;20.59;99877.03;5088192;28;20356;-73
2021/08/16 08:18:05;;;;;;;12.73;3.92;;;;;;;35.95;21.03;99869.06;5087040;28;20032;-73
2021/08/16 08:20:30;;;;;;;6.07;4.00;;;;;;;35.96;20.65;99877.00;5087001;28;20032;-73
2021/08/16 08:22:56;;;;;;;5.50;3.42;;;;;;;35.77;20.23;99874.59;5087319;28;20280;-73
2021/08/16 08:25:21;;;;;;;5.53;2.95;;;;;;;36.09;20.19;99873.25;5069395;28;20021;-73
2021/08/16 08:27:47;;;;;;;5.55;2.97;;;;;;;36.50;19.28;99863.59;5071279;28;20349;-73
2021/08/16 08:30:12;;;;;;;5.97;2.97;;;;;;;36.59;18.90;99867.09;5087217;28;20031;-73
2021/08/16 08:33:04;;;;;;;6.45;3.10;;;;;;;36.34;19.26;99860.53;5084148;28;20067;-73
2021/08/16 08:35:30;;;;;;;5.93;3.00;;;;;;;35.89;19.53;99862.94;5086923;28;22176;-73
2021/08/16 08:37:55;;;;;;;4.70;2.97;;;;;;;35.04;20.12;99859.00;5087407;28;20078;-73
2021/08/16 08:40:21;;;;;;;7.43;3.42;;;;;;;34.39;21.14;99851.50;5071312;28;20020;-73
2021/08/16 08:42:55;;;;;;;7.07;3.25;;;;;;;34.92;21.23;99856.06;5087874;28;20032;-73
2021/08/16 08:45:25;;;;;;;5.10;3.25;;;;;;;34.94;20.82;99854.59;5087030;28;20032;-74
2021/08/16 08:47:51;;;;;;;7.78;3.20;;;;;;;34.49;21.08;99848.47;5084541;28;20048;-73
2021/08/16 08:50:18;;;;;;;9.63;3.20;;;;;;;34.55;21.07;99848.00;5088288;28;20246;-73
2021/08/16 08:52:44;;;;;;;8.40;3.30;;;;;;;34.75;20.90;99846.63;5084903;28;20029;-73
2021/08/16 08:55:11;;;;;;;9.93;3.80;;;;;;;35.04;20.79;99840.53;5086894;28;20047;-73
2021/08/16 08:57:37;;;;;;;6.97;3.50;;;;;;;35.41;20.58;99836.41;5087875;28;20070;-73
2021/08/16 09:00:06;;;;;;;4.78;3.10;;;;;;;35.47;20.25;99834.28;5087603;28;20412;-73
2021/08/16 09:02:31;;;;;;;8.40;3.20;;;;;;;35.45;19.51;99831.06;5085968;28;20111;-73
2021/08/16 09:05:00;;;;;;;6.22;3.53;;;;;;;35.71;20.13;99825.50;5087456;28;20050;-73
2021/08/16 09:07:39;;;;;;;4.97;3.35;;;;;;;35.74;18.72;99808.31;5089237;28;20043;-73
2021/08/16 09:10:11;;;;;;;10.32;3.70;;;;;;;35.76;18.93;99826.13;5086114;28;20031;-73
2021/08/16 09:12:38;;;;;;;6.35;3.20;;;;;;;35.87;19.73;99820.31;5088304;28;20098;-73
2021/08/16 09:15:13;;;;;;;6.03;3.20;;;;;;;35.67;19.70;99822.59;5087902;28;20024;-72
2021/08/16 09:17:39;;;;;;;7.70;3.00;;;;;;;35.66;19.78;99817.41;5087872;28;20073;-73
2021/08/16 09:20:21;;;;;;;4.82;3.55;;;;;;;35.82;20.25;99811.09;5082449;28;20218;-73
2021/08/16 09:22:57;;;;;;;7.22;3.25;;;;;;;35.52;19.36;99814.84;5086860;28;20056;-73
2021/08/16 09:25:23;;;;;;;5.82;3.33;;;;;;;35.50;20.72;99812.41;5086702;28;20040;-73
2021/08/16 09:27:49;;;;;;;5.97;3.05;;;;;;;35.69;19.86;99811.25;5086128;28;20024;-73
2021/08/16 09:30:16;;;;;;;6.65;3.50;;;;;;;35.62;19.42;99784.19;5084682;28;20046;-73
2021/08/16 09:32:43;;;;;;;4.70;3.30;;;;;;;35.80;19.64;99798.75;5086564;28;20058;-73
2021/08/16 09:35:13;;;;;;;4.85;2.88;;;;;;;35.56;19.48;99803.97;5087854;28;20047;-73
2021/08/16 09:37:40;;;;;;;10.15;3.20;;;;;;;34.92;21.37;99796.34;5086367;28;20039;-73
2021/08/16 09:40:07;;;;;;;10.15;3.53;;;;;;;34.50;21.66;99797.84;5086907;28;20309;-73
2021/08/16 09:42:47;;;;;;;4.03;2.80;;;;;;;33.70;21.50;99790.66;5086282;28;20024;-72
2021/08/16 09:45:27;;;;;;;10.32;3.47;;;;;;;33.49;22.07;99782.13;5085860;28;20322;-73
2021/08/16 09:47:56;;;;;;;6.47;3.22;;;;;;;33.31;21.91;99784.75;5087601;28;20071;-73
2021/08/16 09:50:21;;;;;;;7.00;3.80;;;;;;;33.21;22.05;99781.38;5064222;28;20044;-73
2021/08/16 09:52:47;;;;;;;7.28;3.33;;;;;;;33.52;22.47;99768.56;5065819;28;20036;-73
2021/08/16 09:55:13;;;;;;;5.60;3.08;;;;;;;33.78;21.73;99770.66;5064267;28;20033;-73
2021/08/16 09:57:40;;;;;;;5.93;3.30;;;;;;;33.91;21.66;99764.28;5064863;28;20040;-73
2021/08/16 10:00:06;;;;;;;6.32;3.22;;;;;;;33.97;21.71;99760.28;5069793;28;20037;-73
2021/08/16 10:02:35;;;;;;;6.40;3.50;;;;;;;33.78;22.18;99762.41;5071163;28;20036;-73
2021/08/16 10:05:00;;;;;;;11.60;3.58;;;;;;;33.64;23.22;99759.75;5072019;28;20081;-73
2021/08/16 10:07:30;;;;;;;6.32;3.25;;;;;;;33.62;23.05;99734.56;5069649;28;20040;-73
2021/08/16 10:09:59;;;;;;;4.93;2.97;;;;;;;33.88;22.88;99745.69;5068601;28;20024;-73
2021/08/16 10:12:26;;;;;;;7.38;3.80;;;;;;;33.44;22.63;99744.63;5069150;28;20047;-73
2021/08/16 10:14:53;;;;;;;6.93;3.33;;;;;;;33.28;23.29;99749.63;5068858;28;20036;-72
2021/08/16 10:17:24;;;;;;;8.05;3.30;;;;;;;33.11;23.60;99740.47;5070232;28;20028;-73
2021/08/16 10:19:52;;;;;;;9.13;3.58;;;;;;;33.15;23.55;99739.53;5071873;28;20025;-73
2021/08/16 10:22:17;;;;;;;5.07;2.80;;;;;;;33.23;23.20;99751.69;5071556;28;20043;-73
2021/08/16 10:24:42;;;;;;;6.82;3.15;;;;;;;33.06;22.68;99741.41;5066869;28;20283;-73
2021/08/16 10:27:09;;;;;;;6.28;3.50;;;;;;;33.13;22.56;99739.03;5068202;28;20091;-73
2021/08/16 10:29:37;;;;;;;5.07;3.10;;;;;;;33.01;22.82;99744.25;5070750;28;20016;-73
2021/08/16 10:32:07;;;;;;;4.68;3.17;;;;;;;32.60;22.62;99736.13;5070703;28;20095;-73
2021/08/16 10:34:34;;;;;;;4.50;3.20;;;;;;;32.66;23.16;99726.66;5070718;28;20020;-73
2021/08/16 10:37:06;;;;;;;6.82;2.75;;;;;;;32.82;23.63;99724.41;5069902;28;20313;-73
2021/08/16 10:39:51;;;;;;;8.10;3.40;;;;;;;33.19;22.89;99726.81;5069973;28;20047;-72
2021/08/16 10:42:19;;;;;;;3.65;3.20;;;;;;;32.93;22.73;99718.38;5070519;28;20052;-73
2021/08/16 10:44:50;;;;;;;6.60;3.25;;;;;;;32.93;24.09;99723.06;5069986;28;20221;-72
2021/08/16 10:47:33;;;;;;;6.55;3.40;;;;;;;32.77;23.80;99722.59;5068073;28;20039;-72
2021/08/16 10:50:19;;;;;;;5.40;3.15;;;;;;;32.71;24.12;99721.06;5074331;28;20040;-72
2021/08/16 10:52:46;;;;;;;5.43;2.90;;;;;;;32.63;21.72;99706.16;5090752;28;20038;-73
2021/08/16 10:55:15;;;;;;;7.93;2.83;;;;;;;32.81;22.36;99709.91;5086391;28;20070;-73
2021/08/16 10:57:42;;;;;;;5.78;3.10;;;;;;;33.03;22.12;99709.09;5087882;28;20099;-73
2021/08/16 11:00:10;;;;;;;5.30;3.00;;;;;;;32.92;22.31;99710.47;5089661;28;20074;-73
2021/08/16 11:02:41;;;;;;;8.98;3.25;;;;;;;32.95;21.46;99696.13;5088786;28;20028;-73
2021/08/16 11:05:08;;;;;;;3.70;2.80;;;;;;;33.07;21.18;99696.38;5087240;28;20095;-72
2021/08/16 11:07:34;;;;;;;3.00;2.30;;;;;;;33.11;19.85;99691.09;5089299;28;20066;-73
2021/08/16 11:10:02;;;;;;;6.20;2.35;;;;;;;32.84;17.26;99694.75;5088227;28;20222;-73
2021/08/16 11:12:45;;;;;;;2.05;1.80;;;;;;;32.87;15.76;99678.50;5088369;28;20086;-73
2021/08/16 11:15:15;;;;;;;4.32;1.58;;;;;;;33.05;16.17;99673.94;5071180;28;20103;-73
2021/08/16 11:17:40;;;;;;;2.58;2.03;;;;;;;32.95;15.87;99674.19;5086443;28;20046;-73
2021/08/16 11:20:16;;;;;;;3.13;2.10;;;;;;;33.23;15.23;99683.91;5090119;28;20036;-73
2021/08/16 11:22:54;;;;;;;2.58;1.75;;;;;;;33.33;13.25;99677.41;5090236;28;20078;-73
2021/08/16 11:25:21;;;;;;;2.40;1.60;;;;;;;33.35;12.57;99668.84;5085854;28;20032;-73
2021/08/16 11:27:46;;;;;;;2.55;1.83;;;;;;;33.25;14.27;99664.38;5088003;28;20330;-73